sensor_id;sensor_type;location;lat;lon;timestamp;temperature;humidity
19174;DHT22;9719;49.322;8.536;2023-02-28T00:04:46;0.30;66.30
19174;DHT22;9719;49.322;8.536;2023-02-28T00:10:04;0.20;66.70
19174;DHT22;9719;49.322;8.536;2023-02-28T00:15:09;0.10;66.90
19174;DHT22;9719;49.322;8.536;2023-02-28T00:20:13;-0.10;66.90
19174;DHT22;9719;49.322;8.536;2023-02-28T00:25:17;-0.20;67.30
19174;DHT22;9719;49.322;8.536;2023-02-28T00:30:21;-0.30;67.90
19174;DHT22;9719;49.322;8.536;2023-02-28T00:35:24;-0.40;68.50
19174;DHT22;9719;49.322;8.536;2023-02-28T00:40:26;-0.50;68.80
19174;DHT22;9719;49.322;8.536;2023-02-28T00:45:27;-0.60;69.50
19174;DHT22;9719;49.322;8.536;2023-02-28T00:50:30;-0.60;70.40
19174;DHT22;9719;49.322;8.536;2023-02-28T00:55:32;-0.60;70.20
19174;DHT22;9719;49.322;8.536;2023-02-28T01:00:34;-0.70;69.70
19174;DHT22;9719;49.322;8.536;2023-02-28T01:05:37;-0.80;70.70
19174;DHT22;9719;49.322;8.536;2023-02-28T01:10:38;-0.90;71.10
19174;DHT22;9719;49.322;8.536;2023-02-28T01:15:43;-0.90;72.10
19174;DHT22;9719;49.322;8.536;2023-02-28T01:20:47;-0.90;71.90
19174;DHT22;9719;49.322;8.536;2023-02-28T01:25:49;-1.00;72.30
19174;DHT22;9719;49.322;8.536;2023-02-28T01:30:51;-1.00;72.30
19174;DHT22;9719;49.322;8.536;2023-02-28T01:35:59;-0.90;73.30
19174;DHT22;9719;49.322;8.536;2023-02-28T01:41:01;-0.90;73.30
19174;DHT22;9719;49.322;8.536;2023-02-28T01:46:03;-0.90;73.30
19174;DHT22;9719;49.322;8.536;2023-02-28T01:51:14;-0.90;73.30
19174;DHT22;9719;49.322;8.536;2023-02-28T01:56:20;-1.00;73.50
19174;DHT22;9719;49.322;8.536;2023-02-28T02:01:26;-1.00;74.20
19174;DHT22;9719;49.322;8.536;2023-02-28T02:06:37;-1.10;74.30
19174;DHT22;9719;49.322;8.536;2023-02-28T02:11:40;-1.20;74.40
19174;DHT22;9719;49.322;8.536;2023-02-28T02:17:03;-1.30;75.00
19174;DHT22;9719;49.322;8.536;2023-02-28T02:27:53;-1.50;75.80
19174;DHT22;9719;49.322;8.536;2023-02-28T02:33:10;-1.60;76.50
19174;DHT22;9719;49.322;8.536;2023-02-28T02:38:22;-1.60;76.90
19174;DHT22;9719;49.322;8.536;2023-02-28T02:43:32;-1.70;77.20
19174;DHT22;9719;49.322;8.536;2023-02-28T02:48:39;-1.70;77.30
19174;DHT22;9719;49.322;8.536;2023-02-28T02:53:47;-1.70;77.20
19174;DHT22;9719;49.322;8.536;2023-02-28T02:58:51;-1.80;77.50
19174;DHT22;9719;49.322;8.536;2023-02-28T03:03:56;-1.80;78.40
19174;DHT22;9719;49.322;8.536;2023-02-28T03:09:00;-1.90;77.40
19174;DHT22;9719;49.322;8.536;2023-02-28T03:14:16;-2.00;77.80
19174;DHT22;9719;49.322;8.536;2023-02-28T03:19:37;-2.00;79.20
19174;DHT22;9719;49.322;8.536;2023-02-28T03:24:49;-2.00;78.50
19174;DHT22;9719;49.322;8.536;2023-02-28T03:29:58;-2.10;79.30
19174;DHT22;9719;49.322;8.536;2023-02-28T03:35:06;-2.10;79.60
19174;DHT22;9719;49.322;8.536;2023-02-28T03:40:13;-2.20;79.30
19174;DHT22;9719;49.322;8.536;2023-02-28T03:45:17;-2.20;79.00
19174;DHT22;9719;49.322;8.536;2023-02-28T03:50:22;-2.30;79.70
19174;DHT22;9719;49.322;8.536;2023-02-28T03:55:30;-2.40;79.80
19174;DHT22;9719;49.322;8.536;2023-02-28T04:00:38;-2.40;80.10
19174;DHT22;9719;49.322;8.536;2023-02-28T04:05:50;-2.40;80.40
19174;DHT22;9719;49.322;8.536;2023-02-28T04:10:58;-2.50;80.60
19174;DHT22;9719;49.322;8.536;2023-02-28T04:16:02;-2.50;81.20
19174;DHT22;9719;49.322;8.536;2023-02-28T04:21:12;-2.50;81.30
19174;DHT22;9719;49.322;8.536;2023-02-28T04:26:15;-2.50;82.10
19174;DHT22;9719;49.322;8.536;2023-02-28T04:31:17;-2.40;81.80
19174;DHT22;9719;49.322;8.536;2023-02-28T04:36:18;-2.30;83.90
19174;DHT22;9719;49.322;8.536;2023-02-28T04:41:22;-2.00;84.00
19174;DHT22;9719;49.322;8.536;2023-02-28T04:46:24;-1.70;83.00
19174;DHT22;9719;49.322;8.536;2023-02-28T04:51:26;-1.50;83.00
19174;DHT22;9719;49.322;8.536;2023-02-28T04:56:29;-1.30;82.60
19174;DHT22;9719;49.322;8.536;2023-02-28T05:01:32;-1.20;82.80
19174;DHT22;9719;49.322;8.536;2023-02-28T05:06:34;-1.00;82.60
19174;DHT22;9719;49.322;8.536;2023-02-28T05:11:37;-0.80;83.40
19174;DHT22;9719;49.322;8.536;2023-02-28T05:16:39;-0.50;82.90
19174;DHT22;9719;49.322;8.536;2023-02-28T05:21:48;-0.30;82.30
19174;DHT22;9719;49.322;8.536;2023-02-28T05:26:54;-0.10;82.00
19174;DHT22;9719;49.322;8.536;2023-02-28T05:31:55;0.20;82.30
19174;DHT22;9719;49.322;8.536;2023-02-28T05:36:57;0.30;81.90
19174;DHT22;9719;49.322;8.536;2023-02-28T05:42:00;0.50;81.40
19174;DHT22;9719;49.322;8.536;2023-02-28T05:47:02;0.70;81.30
19174;DHT22;9719;49.322;8.536;2023-02-28T05:52:04;0.80;81.20
19174;DHT22;9719;49.322;8.536;2023-02-28T05:57:07;0.90;80.80
19174;DHT22;9719;49.322;8.536;2023-02-28T06:02:12;1.00;80.70
19174;DHT22;9719;49.322;8.536;2023-02-28T06:07:14;0.90;80.30
19174;DHT22;9719;49.322;8.536;2023-02-28T06:12:17;0.80;80.00
19174;DHT22;9719;49.322;8.536;2023-02-28T06:17:18;0.80;80.10
19174;DHT22;9719;49.322;8.536;2023-02-28T06:22:20;0.70;80.40
19174;DHT22;9719;49.322;8.536;2023-02-28T06:27:23;0.70;80.70
19174;DHT22;9719;49.322;8.536;2023-02-28T06:32:25;0.90;80.90
19174;DHT22;9719;49.322;8.536;2023-02-28T06:37:26;1.00;80.30
19174;DHT22;9719;49.322;8.536;2023-02-28T06:42:29;1.30;80.50
19174;DHT22;9719;49.322;8.536;2023-02-28T06:47:32;1.50;79.90
19174;DHT22;9719;49.322;8.536;2023-02-28T06:52:34;1.80;79.40
19174;DHT22;9719;49.322;8.536;2023-02-28T06:57:39;2.00;79.00
19174;DHT22;9719;49.322;8.536;2023-02-28T07:02:40;2.20;78.60
19174;DHT22;9719;49.322;8.536;2023-02-28T07:07:42;2.60;78.10
19174;DHT22;9719;49.322;8.536;2023-02-28T07:12:47;2.80;77.30
19174;DHT22;9719;49.322;8.536;2023-02-28T07:17:48;3.10;76.70
19174;DHT22;9719;49.322;8.536;2023-02-28T07:22:50;3.30;75.90
19174;DHT22;9719;49.322;8.536;2023-02-28T07:27:57;3.60;75.40
19174;DHT22;9719;49.322;8.536;2023-02-28T07:33:00;4.00;74.90
19174;DHT22;9719;49.322;8.536;2023-02-28T07:38:02;4.60;74.30
19174;DHT22;9719;49.322;8.536;2023-02-28T07:43:05;4.90;73.20
19174;DHT22;9719;49.322;8.536;2023-02-28T07:48:07;5.00;70.90
19174;DHT22;9719;49.322;8.536;2023-02-28T07:53:10;5.20;71.20
19174;DHT22;9719;49.322;8.536;2023-02-28T07:58:13;5.30;69.90
19174;DHT22;9719;49.322;8.536;2023-02-28T08:03:15;5.30;69.20
19174;DHT22;9719;49.322;8.536;2023-02-28T08:08:17;5.10;68.90
19174;DHT22;9719;49.322;8.536;2023-02-28T08:13:19;4.90;68.90
19174;DHT22;9719;49.322;8.536;2023-02-28T08:18:21;4.80;68.90
19174;DHT22;9719;49.322;8.536;2023-02-28T08:23:23;4.80;69.40
19174;DHT22;9719;49.322;8.536;2023-02-28T08:28:26;4.70;68.70
19174;DHT22;9719;49.322;8.536;2023-02-28T08:33:28;4.60;68.60
19174;DHT22;9719;49.322;8.536;2023-02-28T08:38:29;4.50;68.90
19174;DHT22;9719;49.322;8.536;2023-02-28T08:43:33;4.50;68.70
19174;DHT22;9719;49.322;8.536;2023-02-28T08:48:35;4.50;68.90
19174;DHT22;9719;49.322;8.536;2023-02-28T08:53:39;4.50;68.70
19174;DHT22;9719;49.322;8.536;2023-02-28T08:58:43;4.60;68.60
19174;DHT22;9719;49.322;8.536;2023-02-28T09:03:46;4.70;68.20
19174;DHT22;9719;49.322;8.536;2023-02-28T09:08:49;4.70;67.70
19174;DHT22;9719;49.322;8.536;2023-02-28T09:13:52;5.00;67.90
19174;DHT22;9719;49.322;8.536;2023-02-28T09:18:55;5.20;67.60
19174;DHT22;9719;49.322;8.536;2023-02-28T09:23:57;5.40;67.30
19174;DHT22;9719;49.322;8.536;2023-02-28T09:29:00;5.70;66.60
19174;DHT22;9719;49.322;8.536;2023-02-28T09:34:04;5.90;66.00
19174;DHT22;9719;49.322;8.536;2023-02-28T09:39:06;7.00;67.80
19174;DHT22;9719;49.322;8.536;2023-02-28T09:44:16;9.50;65.60
19174;DHT22;9719;49.322;8.536;2023-02-28T09:49:22;13.50;62.80
19174;DHT22;9719;49.322;8.536;2023-02-28T09:54:28;17.10;58.20
19174;DHT22;9719;49.322;8.536;2023-02-28T09:59:39;18.80;52.10
19174;DHT22;9719;49.322;8.536;2023-02-28T10:04:44;21.50;48.60
19174;DHT22;9719;49.322;8.536;2023-02-28T10:09:54;23.20;43.90
19174;DHT22;9719;49.322;8.536;2023-02-28T10:14:59;23.20;40.70
19174;DHT22;9719;49.322;8.536;2023-02-28T10:20:06;24.10;38.80
19174;DHT22;9719;49.322;8.536;2023-02-28T10:25:17;25.10;35.20
19174;DHT22;9719;49.322;8.536;2023-02-28T10:30:21;25.00;33.20
19174;DHT22;9719;49.322;8.536;2023-02-28T10:35:24;26.00;32.50
19174;DHT22;9719;49.322;8.536;2023-02-28T10:40:29;25.60;30.00
19174;DHT22;9719;49.322;8.536;2023-02-28T10:45:34;26.30;29.30
19174;DHT22;9719;49.322;8.536;2023-02-28T10:50:42;27.10;28.70
19174;DHT22;9719;49.322;8.536;2023-02-28T10:55:44;28.20;27.50
19174;DHT22;9719;49.322;8.536;2023-02-28T11:00:47;29.30;26.80
19174;DHT22;9719;49.322;8.536;2023-02-28T11:05:49;29.10;25.60
19174;DHT22;9719;49.322;8.536;2023-02-28T11:10:55;29.10;25.10
19174;DHT22;9719;49.322;8.536;2023-02-28T11:16:00;29.30;24.20
19174;DHT22;9719;49.322;8.536;2023-02-28T11:21:04;30.60;24.40
19174;DHT22;9719;49.322;8.536;2023-02-28T11:26:05;30.60;23.30
19174;DHT22;9719;49.322;8.536;2023-02-28T11:31:18;31.00;23.30
19174;DHT22;9719;49.322;8.536;2023-02-28T11:36:24;30.30;22.20
19174;DHT22;9719;49.322;8.536;2023-02-28T11:41:37;30.30;22.60
19174;DHT22;9719;49.322;8.536;2023-02-28T11:46:49;29.80;21.80
19174;DHT22;9719;49.322;8.536;2023-02-28T11:51:53;30.00;22.50
19174;DHT22;9719;49.322;8.536;2023-02-28T11:57:08;31.10;22.30
19174;DHT22;9719;49.322;8.536;2023-02-28T12:02:24;32.70;22.00
19174;DHT22;9719;49.322;8.536;2023-02-28T12:07:31;34.30;20.70
19174;DHT22;9719;49.322;8.536;2023-02-28T12:12:43;35.80;20.30
19174;DHT22;9719;49.322;8.536;2023-02-28T12:17:59;36.60;19.50
19174;DHT22;9719;49.322;8.536;2023-02-28T12:23:22;37.00;19.10
19174;DHT22;9719;49.322;8.536;2023-02-28T12:28:28;37.70;18.80
19174;DHT22;9719;49.322;8.536;2023-02-28T12:33:36;38.00;18.80
19174;DHT22;9719;49.322;8.536;2023-02-28T12:38:43;37.50;18.20
19174;DHT22;9719;49.322;8.536;2023-02-28T12:43:48;36.30;18.50
19174;DHT22;9719;49.322;8.536;2023-02-28T12:48:55;37.00;18.60
19174;DHT22;9719;49.322;8.536;2023-02-28T12:54:07;38.20;18.20
19174;DHT22;9719;49.322;8.536;2023-02-28T12:59:17;39.30;17.90
19174;DHT22;9719;49.322;8.536;2023-02-28T13:04:36;39.20;17.60
19174;DHT22;9719;49.322;8.536;2023-02-28T13:09:52;39.80;16.90
19174;DHT22;9719;49.322;8.536;2023-02-28T13:15:04;38.10;17.40
19174;DHT22;9719;49.322;8.536;2023-02-28T13:20:16;38.20;17.40
19174;DHT22;9719;49.322;8.536;2023-02-28T13:25:52;36.50;17.90
19174;DHT22;9719;49.322;8.536;2023-02-28T13:31:05;36.70;17.40
19174;DHT22;9719;49.322;8.536;2023-02-28T13:36:23;34.30;17.90
19174;DHT22;9719;49.322;8.536;2023-02-28T13:41:46;32.00;18.30
19174;DHT22;9719;49.322;8.536;2023-02-28T13:47:19;28.30;20.50
19174;DHT22;9719;49.322;8.536;2023-02-28T13:52:24;26.40;21.20
19174;DHT22;9719;49.322;8.536;2023-02-28T13:57:34;25.80;22.10
19174;DHT22;9719;49.322;8.536;2023-02-28T14:03:00;27.90;21.60
19174;DHT22;9719;49.322;8.536;2023-02-28T14:08:12;27.40;21.50
19174;DHT22;9719;49.322;8.536;2023-02-28T14:13:39;24.50;22.70
19174;DHT22;9719;49.322;8.536;2023-02-28T14:18:50;21.60;25.20
19174;DHT22;9719;49.322;8.536;2023-02-28T14:24:16;19.50;26.00
19174;DHT22;9719;49.322;8.536;2023-02-28T14:29:37;17.80;28.20
19174;DHT22;9719;49.322;8.536;2023-02-28T14:34:44;16.60;30.00
19174;DHT22;9719;49.322;8.536;2023-02-28T14:39:48;15.70;29.70
19174;DHT22;9719;49.322;8.536;2023-02-28T14:44:54;14.90;29.90
19174;DHT22;9719;49.322;8.536;2023-02-28T14:49:57;14.30;31.40
19174;DHT22;9719;49.322;8.536;2023-02-28T14:55:04;13.70;31.80
19174;DHT22;9719;49.322;8.536;2023-02-28T15:00:14;12.70;34.30
19174;DHT22;9719;49.322;8.536;2023-02-28T15:05:27;12.10;35.50
19174;DHT22;9719;49.322;8.536;2023-02-28T15:10:31;11.40;36.90
19174;DHT22;9719;49.322;8.536;2023-02-28T15:15:41;10.90;37.20
19174;DHT22;9719;49.322;8.536;2023-02-28T15:20:44;10.50;39.10
19174;DHT22;9719;49.322;8.536;2023-02-28T15:25:48;10.00;39.80
19174;DHT22;9719;49.322;8.536;2023-02-28T15:30:54;9.50;41.60
19174;DHT22;9719;49.322;8.536;2023-02-28T15:36:10;9.30;40.30
19174;DHT22;9719;49.322;8.536;2023-02-28T15:41:24;9.10;42.20
19174;DHT22;9719;49.322;8.536;2023-02-28T15:46:26;8.80;42.70
19174;DHT22;9719;49.322;8.536;2023-02-28T15:51:31;8.60;42.40
19174;DHT22;9719;49.322;8.536;2023-02-28T15:56:39;8.20;44.40
19174;DHT22;9719;49.322;8.536;2023-02-28T16:01:44;8.10;44.10
19174;DHT22;9719;49.322;8.536;2023-02-28T16:06:46;7.80;45.30
19174;DHT22;9719;49.322;8.536;2023-02-28T16:11:53;7.50;45.50
19174;DHT22;9719;49.322;8.536;2023-02-28T16:17:02;7.40;46.00
19174;DHT22;9719;49.322;8.536;2023-02-28T16:22:04;7.20;45.90
19174;DHT22;9719;49.322;8.536;2023-02-28T16:27:14;6.90;46.60
19174;DHT22;9719;49.322;8.536;2023-02-28T16:32:17;6.70;47.50
19174;DHT22;9719;49.322;8.536;2023-02-28T16:37:19;6.40;49.00
19174;DHT22;9719;49.322;8.536;2023-02-28T16:42:24;6.20;48.20
19174;DHT22;9719;49.322;8.536;2023-02-28T16:47:26;6.10;48.80
19174;DHT22;9719;49.322;8.536;2023-02-28T16:52:28;5.80;48.60
19174;DHT22;9719;49.322;8.536;2023-02-28T16:57:31;5.60;49.40
19174;DHT22;9719;49.322;8.536;2023-02-28T17:02:33;5.40;49.70
19174;DHT22;9719;49.322;8.536;2023-02-28T17:07:34;5.10;50.00
19174;DHT22;9719;49.322;8.536;2023-02-28T17:12:37;4.80;50.80
19174;DHT22;9719;49.322;8.536;2023-02-28T17:17:41;4.60;53.00
19174;DHT22;9719;49.322;8.536;2023-02-28T17:22:43;4.40;51.80
19174;DHT22;9719;49.322;8.536;2023-02-28T17:27:47;4.20;53.60
19174;DHT22;9719;49.322;8.536;2023-02-28T17:32:48;4.10;52.60
19174;DHT22;9719;49.322;8.536;2023-02-28T17:37:50;3.90;53.20
19174;DHT22;9719;49.322;8.536;2023-02-28T17:42:53;3.70;53.40
19174;DHT22;9719;49.322;8.536;2023-02-28T17:47:57;3.60;54.00
19174;DHT22;9719;49.322;8.536;2023-02-28T17:52:58;3.40;54.00
19174;DHT22;9719;49.322;8.536;2023-02-28T17:58:02;3.40;54.20
19174;DHT22;9719;49.322;8.536;2023-02-28T18:03:04;3.30;54.40
19174;DHT22;9719;49.322;8.536;2023-02-28T18:08:06;3.20;55.20
19174;DHT22;9719;49.322;8.536;2023-02-28T18:13:09;3.00;54.80
19174;DHT22;9719;49.322;8.536;2023-02-28T18:18:12;2.90;55.30
19174;DHT22;9719;49.322;8.536;2023-02-28T18:23:16;2.80;56.00
19174;DHT22;9719;49.322;8.536;2023-02-28T18:28:21;2.70;56.20
19174;DHT22;9719;49.322;8.536;2023-02-28T18:33:22;2.70;56.40
19174;DHT22;9719;49.322;8.536;2023-02-28T18:38:24;2.60;57.20
19174;DHT22;9719;49.322;8.536;2023-02-28T18:43:28;2.50;57.20
19174;DHT22;9719;49.322;8.536;2023-02-28T18:48:30;2.50;57.70
19174;DHT22;9719;49.322;8.536;2023-02-28T18:53:33;2.40;57.70
19174;DHT22;9719;49.322;8.536;2023-02-28T18:58:36;2.40;58.50
19174;DHT22;9719;49.322;8.536;2023-02-28T19:03:38;2.40;58.50
19174;DHT22;9719;49.322;8.536;2023-02-28T19:08:40;2.30;59.00
19174;DHT22;9719;49.322;8.536;2023-02-28T19:13:44;2.20;58.70
19174;DHT22;9719;49.322;8.536;2023-02-28T19:18:46;2.10;58.70
19174;DHT22;9719;49.322;8.536;2023-02-28T19:23:47;2.00;59.20
19174;DHT22;9719;49.322;8.536;2023-02-28T19:28:50;2.00;60.60
19174;DHT22;9719;49.322;8.536;2023-02-28T19:33:53;2.00;59.80
19174;DHT22;9719;49.322;8.536;2023-02-28T19:38:54;1.90;60.30
19174;DHT22;9719;49.322;8.536;2023-02-28T19:43:57;1.90;60.00
19174;DHT22;9719;49.322;8.536;2023-02-28T19:48:59;1.90;60.40
19174;DHT22;9719;49.322;8.536;2023-02-28T19:54:01;1.90;61.60
19174;DHT22;9719;49.322;8.536;2023-02-28T19:59:05;1.90;61.00
19174;DHT22;9719;49.322;8.536;2023-02-28T20:04:06;1.80;61.60
19174;DHT22;9719;49.322;8.536;2023-02-28T20:09:08;1.80;61.50
19174;DHT22;9719;49.322;8.536;2023-02-28T20:14:12;1.70;61.80
19174;DHT22;9719;49.322;8.536;2023-02-28T20:19:14;1.60;62.20
19174;DHT22;9719;49.322;8.536;2023-02-28T20:24:16;1.50;62.20
19174;DHT22;9719;49.322;8.536;2023-02-28T20:29:21;1.50;63.00
19174;DHT22;9719;49.322;8.536;2023-02-28T20:34:23;1.40;62.90
19174;DHT22;9719;49.322;8.536;2023-02-28T20:39:26;1.40;63.30
19174;DHT22;9719;49.322;8.536;2023-02-28T20:44:29;1.30;63.60
19174;DHT22;9719;49.322;8.536;2023-02-28T20:49:31;1.20;64.30
19174;DHT22;9719;49.322;8.536;2023-02-28T20:54:33;1.20;64.30
19174;DHT22;9719;49.322;8.536;2023-02-28T20:59:36;1.10;65.20
19174;DHT22;9719;49.322;8.536;2023-02-28T21:04:39;1.10;64.60
19174;DHT22;9719;49.322;8.536;2023-02-28T21:09:41;1.00;64.80
19174;DHT22;9719;49.322;8.536;2023-02-28T21:14:44;0.90;65.10
19174;DHT22;9719;49.322;8.536;2023-02-28T21:19:45;0.80;65.50
19174;DHT22;9719;49.322;8.536;2023-02-28T21:24:47;0.70;65.30
19174;DHT22;9719;49.322;8.536;2023-02-28T21:29:50;0.60;65.80
19174;DHT22;9719;49.322;8.536;2023-02-28T21:34:53;0.50;66.50
19174;DHT22;9719;49.322;8.536;2023-02-28T21:39:54;0.50;67.30
19174;DHT22;9719;49.322;8.536;2023-02-28T21:44:57;0.60;68.60
19174;DHT22;9719;49.322;8.536;2023-02-28T21:50:01;0.70;67.90
19174;DHT22;9719;49.322;8.536;2023-02-28T21:55:02;0.90;68.20
19174;DHT22;9719;49.322;8.536;2023-02-28T22:00:07;0.90;67.70
19174;DHT22;9719;49.322;8.536;2023-02-28T22:05:10;0.90;67.60
19174;DHT22;9719;49.322;8.536;2023-02-28T22:10:11;1.00;68.30
19174;DHT22;9719;49.322;8.536;2023-02-28T22:15:15;1.00;67.70
19174;DHT22;9719;49.322;8.536;2023-02-28T22:20:16;1.00;68.60
19174;DHT22;9719;49.322;8.536;2023-02-28T22:25:18;1.00;68.30
19174;DHT22;9719;49.322;8.536;2023-02-28T22:30:21;1.00;68.40
19174;DHT22;9719;49.322;8.536;2023-02-28T22:35:23;0.90;67.80
19174;DHT22;9719;49.322;8.536;2023-02-28T22:40:24;0.70;68.30
19174;DHT22;9719;49.322;8.536;2023-02-28T22:45:27;0.60;68.60
19174;DHT22;9719;49.322;8.536;2023-02-28T22:50:29;0.60;69.40
19174;DHT22;9719;49.322;8.536;2023-02-28T22:55:30;0.60;69.10
19174;DHT22;9719;49.322;8.536;2023-02-28T23:00:33;0.50;69.00
19174;DHT22;9719;49.322;8.536;2023-02-28T23:05:35;0.40;69.70
19174;DHT22;9719;49.322;8.536;2023-02-28T23:10:40;0.30;70.10
19174;DHT22;9719;49.322;8.536;2023-02-28T23:15:43;0.30;71.80
19174;DHT22;9719;49.322;8.536;2023-02-28T23:20:45;0.20;70.30
19174;DHT22;9719;49.322;8.536;2023-02-28T23:25:47;0.00;70.00
19174;DHT22;9719;49.322;8.536;2023-02-28T23:30:50;-0.10;70.60
19174;DHT22;9719;49.322;8.536;2023-02-28T23:35:52;-0.20;71.70
19174;DHT22;9719;49.322;8.536;2023-02-28T23:40:53;-0.20;71.70
19174;DHT22;9719;49.322;8.536;2023-02-28T23:45:56;-0.30;72.00
19174;DHT22;9719;49.322;8.536;2023-02-28T23:51:02;-0.30;72.10
19174;DHT22;9719;49.322;8.536;2023-02-28T23:56:09;-0.30;72.80
